RYR51YC EGGW-EIDW
Flight info
| Callsign | RYR51YC |
|---|---|
| Flight time | N/A |
| Altitude | 34000 |
| Route | RODNI N27 ICTAM T421 DIDZA N14 BIBPE DCT OKTAD DCT MEDOG DCT KRAGY DCT PEMOB M17 VATRY VATRY4L |
| Aircraft | B738/M-SDE2E3FGHIRWXY/LB1 |
Departure
| Time | N/A |
|---|---|
| Airport | London Luton Airport (EGGW) |
Arrival
| Time | 2026-04-30 18:25 |
|---|---|
| Airport | Dublin Airport (EIDW) |
| Time | Latitude | Longitude | Altitude | Speed | Heading |
|---|---|---|---|---|---|
| 2026-04-30 17:39 | 51.61453 | -1.38779 | 25703 ft | 382 kts | 266° |
| 2026-04-30 17:41 | 51.70452 | -1.70066 | 30451 ft | 375 kts | 279° |
| 2026-04-30 17:42 | 51.71147 | -1.78270 | 31358 ft | 368 kts | 271° |
| 2026-04-30 17:42 | 51.72256 | -1.90477 | 32655 ft | 368 kts | 279° |
| 2026-04-30 17:43 | 51.73498 | -1.98415 | 33647 ft | 360 kts | 281° |
| 2026-04-30 17:44 | 51.75329 | -2.10290 | 34155 ft | 374 kts | 280° |
| 2026-04-30 17:44 | 51.77180 | -2.22798 | 34134 ft | 385 kts | 280° |
| 2026-04-30 17:47 | 51.82551 | -2.59996 | 34130 ft | 379 kts | 279° |
| 2026-04-30 17:48 | 51.86446 | -2.89103 | 34242 ft | 378 kts | 278° |
| 2026-04-30 17:49 | 51.88734 | -3.06460 | 34251 ft | 410 kts | 278° |
| 2026-04-30 17:50 | 51.91182 | -3.25198 | 34175 ft | 437 kts | 278° |
| 2026-04-30 17:52 | 51.94759 | -3.52985 | 34113 ft | 437 kts | 277° |
| 2026-04-30 17:54 | 51.99959 | -3.94246 | 34119 ft | 427 kts | 276° |
| 2026-04-30 17:56 | 52.04629 | -4.32389 | 33169 ft | 433 kts | 276° |
| 2026-04-30 17:57 | 52.06334 | -4.46548 | 32059 ft | 420 kts | 276° |
| 2026-04-30 17:58 | 52.07976 | -4.60373 | 30956 ft | 412 kts | 276° |
| 2026-04-30 17:59 | 52.10103 | -4.78509 | 29428 ft | 405 kts | 275° |
| 2026-04-30 18:00 | 52.12171 | -4.96371 | 27902 ft | 400 kts | 275° |
| 2026-04-30 18:00 | 52.13690 | -5.09747 | 26625 ft | 399 kts | 276° |
| 2026-04-30 18:01 | 52.16487 | -5.17570 | 25872 ft | 413 kts | 317° |
| 2026-04-30 18:02 | 52.24090 | -5.24192 | 24766 ft | 413 kts | 333° |
| 2026-04-30 18:02 | 52.31762 | -5.30378 | 24076 ft | 399 kts | 332° |
| 2026-04-30 18:03 | 52.39239 | -5.36568 | 24087 ft | 407 kts | 332° |
| 2026-04-30 18:04 | 52.46791 | -5.42831 | 24082 ft | 404 kts | 332° |
| 2026-04-30 18:05 | 52.56792 | -5.50956 | 24081 ft | 404 kts | 339° |
| 2026-04-30 18:06 | 52.67633 | -5.56251 | 23213 ft | 402 kts | 343° |
| 2026-04-30 18:07 | 52.78151 | -5.61675 | 22141 ft | 392 kts | 342° |
| 2026-04-30 18:08 | 52.85905 | -5.65691 | 21376 ft | 388 kts | 342° |
| 2026-04-30 18:09 | 52.96173 | -5.71032 | 20376 ft | 386 kts | 342° |
| 2026-04-30 18:10 | 53.06384 | -5.76370 | 19414 ft | 383 kts | 342° |
| 2026-04-30 18:11 | 53.14997 | -5.85226 | 18453 ft | 364 kts | 290° |
| 2026-04-30 18:11 | 53.17932 | -5.96641 | 17695 ft | 360 kts | 287° |
| 2026-04-30 18:12 | 53.20828 | -6.07970 | 16165 ft | 349 kts | 288° |
| 2026-04-30 18:13 | 53.22722 | -6.15294 | 15195 ft | 341 kts | 288° |
| 2026-04-30 18:13 | 53.25170 | -6.24804 | 13918 ft | 332 kts | 288° |
| 2026-04-30 18:14 | 53.27263 | -6.32976 | 12627 ft | 326 kts | 288° |
| 2026-04-30 18:15 | 53.29904 | -6.43419 | 10784 ft | 327 kts | 289° |
| 2026-04-30 18:15 | 53.32583 | -6.53862 | 8898 ft | 324 kts | 288° |
| 2026-04-30 18:16 | 53.33927 | -6.60951 | 7625 ft | 313 kts | 268° |
| 2026-04-30 18:16 | 53.33920 | -6.68058 | 6432 ft | 308 kts | 263° |
| 2026-04-30 18:17 | 53.33964 | -6.71638 | 5806 ft | 312 kts | 274° |
| 2026-04-30 18:17 | 53.34742 | -6.75068 | 5180 ft | 322 kts | 300° |
| 2026-04-30 18:17 | 53.38362 | -6.79145 | 3967 ft | 315 kts | 352° |
| 2026-04-30 18:18 | 53.40485 | -6.79169 | 3381 ft | 297 kts | 15° |
| 2026-04-30 18:18 | 53.42170 | -6.77821 | 3277 ft | 254 kts | 46° |
| 2026-04-30 18:18 | 53.43377 | -6.75849 | 3374 ft | 237 kts | 60° |
| 2026-04-30 18:18 | 53.44234 | -6.73569 | 3489 ft | 230 kts | 70° |
| 2026-04-30 18:19 | 53.44985 | -6.71184 | 3575 ft | 230 kts | 70° |
| 2026-04-30 18:19 | 53.45684 | -6.68793 | 3695 ft | 227 kts | 77° |
| 2026-04-30 18:19 | 53.45838 | -6.66252 | 3800 ft | 215 kts | 99° |
| 2026-04-30 18:19 | 53.45734 | -6.63756 | 3930 ft | 215 kts | 100° |
| 2026-04-30 18:20 | 53.45613 | -6.61263 | 3968 ft | 211 kts | 101° |
| 2026-04-30 18:20 | 53.45482 | -6.58893 | 3817 ft | 197 kts | 102° |
| 2026-04-30 18:20 | 53.45354 | -6.56673 | 3556 ft | 185 kts | 102° |
| 2026-04-30 18:20 | 53.45232 | -6.54592 | 3316 ft | 175 kts | 102° |
| 2026-04-30 18:21 | 53.45117 | -6.52607 | 3099 ft | 169 kts | 103° |
| 2026-04-30 18:21 | 53.45002 | -6.50659 | 2882 ft | 168 kts | 103° |
| 2026-04-30 18:21 | 53.44886 | -6.48683 | 2666 ft | 172 kts | 102° |
| 2026-04-30 18:21 | 53.44771 | -6.46677 | 2432 ft | 173 kts | 102° |
| 2026-04-30 18:22 | 53.44657 | -6.44682 | 2184 ft | 170 kts | 102° |
| 2026-04-30 18:22 | 53.44432 | -6.40757 | 1747 ft | 172 kts | 101° |
| 2026-04-30 18:22 | 53.44319 | -6.38751 | 1494 ft | 172 kts | 100° |
| 2026-04-30 18:23 | 53.44212 | -6.36839 | 1292 ft | 155 kts | 100° |
| 2026-04-30 18:23 | 53.44112 | -6.35082 | 1080 ft | 150 kts | 100° |
| 2026-04-30 18:23 | 53.44012 | -6.33350 | 837 ft | 149 kts | 97° |
| 2026-04-30 18:23 | 53.43895 | -6.31621 | 634 ft | 151 kts | 96° |
| 2026-04-30 18:24 | 53.43722 | -6.28173 | 258 ft | 148 kts | 95° |
| 2026-04-30 18:24 | 53.43629 | -6.26552 | 242 ft | 125 kts | 95° |
| 2026-04-30 18:24 | 53.43567 | -6.25417 | 209 ft | 52 kts | 97° |
| 2026-04-30 18:25 | 53.43458 | -6.25024 | 210 ft | 24 kts | 125° |
| 2026-04-30 18:25 | 53.43394 | -6.25299 | 213 ft | 17 kts | 276° |
| 2026-04-30 18:25 | 53.43403 | -6.25489 | 214 ft | 16 kts | 274° |
| 2026-04-30 18:26 | 53.43275 | -6.25590 | 216 ft | 15 kts | 156° |
| 2026-04-30 18:26 | 53.43187 | -6.25527 | 211 ft | 13 kts | 156° |
| 2026-04-30 18:26 | 53.43106 | -6.25469 | 216 ft | 12 kts | 157° |
| 2026-04-30 18:27 | 53.42954 | -6.25353 | 214 ft | 12 kts | 139° |
| 2026-04-30 18:27 | 53.42962 | -6.25224 | 212 ft | 12 kts | 82° |
| 2026-04-30 18:28 | 53.42959 | -6.24964 | 218 ft | 11 kts | 51° |
| 2026-04-30 18:28 | 53.43008 | -6.24944 | 210 ft | 0 kts | 6° |